RCDI weather

Longtan Air Base
Longtan Township, Taoyuan County, Taiwan

Public forecast

Using degrees Celsius for public forecast. Weather courtesy of forecast.io.

METAR (pilot weather report)

Closest report is Taiwan Taoyuan International Airport, 13.4 nm (24.8 km) N. Retrieved 2019/05/27 01:30 UTC (0 seconds ago):

RCTP 270130Z 20006KT 160V230 9999 FEW015 SCT035 BKN150 30/26 Q1010 NOSIG RMK A2984

TAF (pilot weather forecast)

Forecast is more than 12 hours old.

Closest forecast is Taiwan Taoyuan International Airport, 13.4 nm (24.8 km) N. Retrieved 2019/05/26 00:00 UTC (1 day ago):

TAF RCTP 262300Z 2700/2806 33005KT 8000 FEW015 BKN032 BKN060 TEMPO 2700/2702 21005KT 5000 RA FEW012 BKN022 BKN050 TEMPO 2706/2710 26008KT FEW012 FEW015TCU BKN022 BKN050 BECMG 2710/2712 22005KT TEMPO 2718/2722 4000 BR FEW010 BKN016 BKN040 TEMPO 2722/2802 32010G20KT 3000 TSRA SCT006 BKN012 FEW015CB BKN030 BECMG 2802/2804 04012KT 5000 RA BR FEW008 BKN016 BKN040